Aérodrome :
LOGIN :

S'inscrire | Disclaimer

   EN    FR    IT 

 










Légende :    VFR   VFR Marginal   IFR   IFR Intensif   IFR Très Intensif
Visi : 
Plafond : 
>= 8 km
>= 3000ft
5 à 8 km
1000 à 3000 ft
1500m à 5 km
500 à 1000 ft
800 à 1500m
200 à 500 ft
< 800m
< 200 ft
Symboles :   Orages  Brouillard  Fortes neiges  Fortes précipitations  Vent > 20 kt
SIGMETs :   Divers  Orages  Givrage  Turbulence  Onde Orograph.  Cendres Volcan.






- Altitude de l'aérodrome : 527 ft
- Code IATA : DBV


LDDU - Dubrovnik

DERNIER METAR :
  • 080600Z VRB05KT CAVOK 13/M09 Q1026 TEMPO 02010KT

METARs EXPIRÉS :
  • 080530Z VRB08KT CAVOK 12/M08 Q1026 NOSIG
  • 080500Z VRB07KT CAVOK 13/M10 Q1026 NOSIG
  • 080430Z VRB08KT CAVOK 13/M10 Q1025 NOSIG
  • 080400Z 36006KT 290V100 CAVOK 13/M10 Q1025 NOSIG
  • 080330Z VRB06KT CAVOK 13/M10 Q1026 TEMPO 02020G30KT

TAF TAF LDDU
Valide du 08 à 06h jusqu'au 09 à 06h UTC


080525Z 0806/0906 02009KT CAVOK TX18/0812Z TN12/0903Z
BECMG 0810/0812 30010KT
BECMG 0820/0822 02012KT



MET'MAP, la Météo Aéronautique d'un coup d'oeil ! - Copyright ORBIFLY Décembre 2007 - Disclaimer

ORBIFLY MET'MAP TEAM :

Programmation & Développement : Alexandra Zaïnal
Sur une idée originale de : Baudouin d'Aumeries
Assistance à la programmation : Marc-Olivier Méhu
Soutien technique & logistique : Manuel Goepfert

Contact : metmap@orbifly.com




SOURCES & CREDITS :

   NOAA